Weather History for KAIG - September, 2012

Change the Weather History Date:

Sunday, September 23, 2012

  Actual Average (KAUW) Record (KAUW)
Temperature  
Mean Temperature 42 °F 55 °F  
Max Temperature 54 °F 66 °F 91 °F (1937)
Min Temperature 31 °F 45 °F 25 °F (1974)
Degree Days  
Heating Degree Days 22 10  
Month to date heating degree days 144  
Since 1 July heating degree days 210  
Cooling Degree Days 0 0  
Month to date cooling degree days 29  
Year to date cooling degree days 404  
Moisture  
Dew Point 31 °F    
Average Humidity 68    
Maximum Humidity 93    
Minimum Humidity 40    
Precipitation  
Precipitation 0.00 in 0.13 in 3.28 in (2010)
Month to date precipitation 2.99  
Year to date precipitation 25.20  
Snow  
Snow 0.00 in 0.00 in T in (1942)
Month to date snowfall 0.0  
Since 1 July snowfall 0.0  
Since 1 September snowfall 0.0  
Snow Depth -    
Sea Level Pressure  
Sea Level Pressure 30.16 in    
Wind  
Wind Speed 7 mph (WNW)    
Max Wind Speed 17 mph    
Max Gust Speed 25 mph    
Visibility 10 miles    
Events      
T = Trace of Precipitation, MM = Missing Value Source: NWS Daily Summary

Daily Weather History Graph

Daily Weather History Graph

Search for Another Location

Airport or City:

Trip Planner

Search our weather history database for the weather conditions in past years. The results will help you decide how hot, cold, wet, or windy it might be!

Date:

Astronomy

Sep. 23, 2012 Rise Set
Actual Time 6:45 AM CDT 6:51 PM CDT
Civil Twilight 6:15 AM CDT 7:20 PM CDT
Nautical Twilight 5:41 AM CDT 7:54 PM CDT
Astronomical Twilight 5:06 AM CDT 8:29 PM CDT
Moon 3:06 PM CDT (9/23) No Moon Set
Length of Visible Light 13h 04m
Length of Day
12h 05m
First Quarter, 60% of the Moon is Illuminated
Sep 23
First Quarter
Sep 29
Full
Oct 8
Last Quarter
Oct 15
New
Oct 21
First Quarter

Hourly Weather History & Observations

Time (CDT) Temp. Windchill Dew Point Humidity Pressure Visibility Wind Dir Wind Speed Gust Speed Precip Events Conditions
12:15 AM 38.5 °F 33.4 °F 33.4 °F 82% 30.13 in 10.0 mi West 6.9 mph - N/A   Overcast
12:35 AM 37.4 °F 32.1 °F 33.4 °F 86% 30.13 in 10.0 mi West 6.9 mph - N/A   Overcast
12:55 AM 36.5 °F 31.0 °F 33.3 °F 88% 30.13 in 10.0 mi West 6.9 mph - N/A   Overcast
1:15 AM 35.6 °F 30.7 °F 32.9 °F 90% 30.13 in 10.0 mi West 5.8 mph - N/A   Scattered Clouds
1:35 AM 34.7 °F 29.6 °F 32.4 °F 91% 30.14 in 10.0 mi West 5.8 mph - N/A   Clear
1:55 AM 34.0 °F 28.8 °F 32.0 °F 92% 30.14 in 10.0 mi West 5.8 mph - N/A   Clear
2:15 AM 33.8 °F 28.6 °F 32.0 °F 93% 30.14 in 10.0 mi West 5.8 mph - N/A   Scattered Clouds
2:35 AM 34.5 °F 29.4 °F 32.4 °F 92% 30.14 in 10.0 mi West 5.8 mph - N/A   Mostly Cloudy
2:55 AM 35.4 °F 29.7 °F 32.9 °F 91% 30.15 in 10.0 mi WNW 6.9 mph - N/A   Overcast
3:15 AM 36.3 °F 30.8 °F 33.1 °F 88% 30.15 in 10.0 mi WNW 6.9 mph - N/A   Overcast
3:35 AM 36.7 °F 31.2 °F 33.1 °F 87% 30.15 in 10.0 mi WNW 6.9 mph - N/A   Overcast
3:55 AM 37.0 °F 31.0 °F 32.9 °F 85% 30.15 in 10.0 mi WNW 8.1 mph - N/A   Overcast
4:15 AM 37.0 °F 31.6 °F 32.9 °F 85% 30.15 in 10.0 mi WNW 6.9 mph - N/A   Overcast
4:35 AM 37.0 °F 32.4 °F 32.9 °F 85% 30.15 in 10.0 mi WNW 5.8 mph - N/A   Overcast
4:55 AM 37.4 °F 32.1 °F 32.5 °F 83% 30.16 in 10.0 mi WNW 6.9 mph - N/A   Overcast
5:15 AM 36.5 °F 31.0 °F 32.4 °F 85% 30.16 in 10.0 mi WNW 6.9 mph - N/A   Overcast
5:35 AM 36.9 °F 31.4 °F 32.5 °F 84% 30.16 in 10.0 mi WNW 6.9 mph - N/A   Overcast
5:55 AM 37.0 °F 32.4 °F 32.5 °F 84% 30.16 in 10.0 mi WNW 5.8 mph - N/A   Overcast
6:15 AM 36.5 °F 31.0 °F 32.4 °F 85% 30.16 in 10.0 mi WNW 6.9 mph - N/A   Overcast
6:35 AM 36.5 °F 31.0 °F 32.4 °F 85% 30.16 in 10.0 mi West 6.9 mph - N/A   Overcast
6:55 AM 36.5 °F 31.8 °F 32.4 °F 85% 30.16 in 10.0 mi West 5.8 mph - N/A   Overcast
7:15 AM 35.6 °F 30.7 °F 32.0 °F 87% 30.17 in 10.0 mi WNW 5.8 mph - N/A   Mostly Cloudy
7:35 AM 36.7 °F 32.9 °F 32.4 °F 84% 30.17 in 10.0 mi West 4.6 mph - N/A   Scattered Clouds
7:55 AM 37.8 °F 31.8 °F 32.5 °F 81% 30.17 in 10.0 mi West 8.1 mph - N/A   Clear
8:15 AM 39.2 °F 33.6 °F 32.7 °F 78% 30.18 in 10.0 mi West 8.1 mph - N/A   Clear
8:35 AM 41.0 °F 35.2 °F 32.5 °F 72% 30.18 in 10.0 mi NW 9.2 mph - N/A   Clear
8:55 AM 41.9 °F 35.4 °F 32.2 °F 68% 30.18 in 10.0 mi WNW 11.5 mph 16.1 mph N/A   Clear
9:15 AM 43.2 °F 35.9 °F 32.0 °F 65% 30.18 in 10.0 mi NW 15.0 mph 20.7 mph N/A   Clear
9:35 AM 45.0 °F 38.5 °F 32.0 °F 60% 30.19 in 10.0 mi NW 13.8 mph 20.7 mph N/A   Clear
9:55 AM 45.7 °F 39.8 °F 30.7 °F 56% 30.19 in 10.0 mi NW 12.7 mph 18.4 mph N/A   Clear
10:15 AM 46.0 °F 39.0 °F 30.2 °F 54% 30.19 in 10.0 mi NW 17.3 mph 21.9 mph N/A   Scattered Clouds
10:35 AM 47.5 °F - 30.9 °F 53% 30.19 in 10.0 mi WNW 13.8 mph 17.3 mph N/A   Scattered Clouds
10:55 AM 47.7 °F - 30.4 °F 51% 30.19 in 10.0 mi WNW 12.7 mph 25.3 mph N/A   Scattered Clouds
11:15 AM 48.6 °F - 30.7 °F 50% 30.19 in 10.0 mi WNW 11.5 mph 18.4 mph N/A   Mostly Cloudy
11:35 AM 46.6 °F - 30.6 °F 54% 30.19 in 10.0 mi NW 13.8 mph 18.4 mph N/A   Overcast
11:55 AM 48.2 °F - 30.0 °F 49% 30.20 in 10.0 mi NW 11.5 mph 17.3 mph N/A   Overcast
12:15 PM 48.9 °F - 31.3 °F 51% 30.19 in 10.0 mi WNW 9.2 mph - N/A   Overcast
12:35 PM 49.6 °F - 31.3 °F 49% 30.19 in 10.0 mi NNW 9.2 mph 16.1 mph N/A   Overcast
12:55 PM 48.2 °F - 30.6 °F 51% 30.19 in 10.0 mi NW 9.2 mph 16.1 mph N/A   Mostly Cloudy
1:15 PM 50.5 °F - 29.8 °F 45% 30.18 in 10.0 mi NW 12.7 mph 17.3 mph N/A   Mostly Cloudy
1:35 PM 52.7 °F - 31.3 °F 44% 30.18 in 10.0 mi WNW 10.4 mph 18.4 mph N/A   Mostly Cloudy
1:55 PM 52.7 °F - 30.2 °F 42% 30.18 in 10.0 mi WNW 11.5 mph 20.7 mph N/A   Overcast
2:15 PM 52.5 °F - 30.9 °F 44% 30.17 in 10.0 mi NW 12.7 mph 16.1 mph N/A   Overcast
2:35 PM 51.8 °F - 30.7 °F 45% 30.17 in 10.0 mi NW 13.8 mph 18.4 mph N/A   Overcast
2:55 PM 54.0 °F - 30.2 °F 40% 30.17 in 10.0 mi NW 9.2 mph 16.1 mph N/A   Overcast
3:15 PM 53.8 °F - 30.0 °F 40% 30.16 in 10.0 mi NNW 13.8 mph 18.4 mph N/A   Mostly Cloudy
3:35 PM 53.2 °F - 29.7 °F 40% 30.16 in 10.0 mi NW 11.5 mph - N/A   Scattered Clouds
3:55 PM 51.4 °F - 29.5 °F 43% 30.16 in 10.0 mi NW 10.4 mph - N/A   Scattered Clouds
4:15 PM 52.3 °F - 29.3 °F 41% 30.16 in 10.0 mi WNW 12.7 mph - N/A   Mostly Cloudy
4:35 PM 52.5 °F - 28.8 °F 40% 30.15 in 10.0 mi WNW 10.4 mph 21.9 mph N/A   Mostly Cloudy
4:55 PM 52.5 °F - 29.7 °F 42% 30.15 in 10.0 mi NW 11.5 mph 18.4 mph N/A   Scattered Clouds
5:15 PM 51.1 °F - 29.5 °F 43% 30.15 in 10.0 mi NNW 9.2 mph - N/A   Scattered Clouds
5:35 PM 52.3 °F - 29.8 °F 42% 30.15 in 10.0 mi NW 11.5 mph - N/A   Scattered Clouds
5:55 PM 51.1 °F - 29.1 °F 43% 30.15 in 10.0 mi WNW 8.1 mph - N/A   Clear
6:15 PM 50.0 °F - 29.5 °F 45% 30.15 in 10.0 mi WNW 9.2 mph - N/A   Clear
6:35 PM 48.4 °F - 30.2 °F 49% 30.15 in 10.0 mi NW 5.8 mph - N/A   Clear
6:55 PM 46.4 °F 44.3 °F 30.2 °F 53% 30.15 in 10.0 mi NW 4.6 mph - N/A   Clear
7:15 PM 43.9 °F 41.3 °F 30.9 °F 60% 30.15 in 10.0 mi NW 4.6 mph - N/A   Clear
7:35 PM 42.3 °F 40.5 °F 31.1 °F 65% 30.16 in 10.0 mi NW 3.5 mph - N/A   Clear
7:55 PM 42.8 °F 41.1 °F 30.7 °F 62% 30.16 in 10.0 mi WNW 3.5 mph - N/A   Clear
8:15 PM 39.6 °F - 30.9 °F 71% 30.16 in 10.0 mi Calm Calm - N/A   Clear
8:35 PM 36.5 °F 33.9 °F 30.6 °F 79% 30.17 in 10.0 mi West 3.5 mph - N/A   Clear
8:55 PM 33.6 °F 30.6 °F 30.2 °F 87% 30.16 in 10.0 mi SW 3.5 mph - N/A   Clear
9:15 PM 35.1 °F - 31.1 °F 85% 30.16 in 10.0 mi Calm Calm - N/A   Clear
9:35 PM 36.0 °F - 31.1 °F 82% 30.16 in 10.0 mi Calm Calm - N/A   Clear
9:55 PM 36.5 °F 33.9 °F 30.7 °F 80% 30.16 in 10.0 mi WSW 3.5 mph - N/A   Clear
10:15 PM 34.7 °F - 30.4 °F 84% 30.16 in 10.0 mi Calm Calm - N/A   Clear
10:35 PM 35.2 °F - 29.3 °F 79% 30.15 in 10.0 mi Calm Calm - N/A   Clear
10:55 PM 32.2 °F - 28.9 °F 88% 30.15 in 10.0 mi Calm Calm - N/A   Clear
11:15 PM 33.3 °F - 29.3 °F 85% 30.15 in 10.0 mi Calm Calm - N/A   Clear
11:35 PM 31.6 °F 28.3 °F 28.8 °F 89% 30.14 in 10.0 mi WSW 3.5 mph - N/A   Clear
11:55 PM 32.9 °F - 28.4 °F 84% 30.13 in 10.0 mi Calm Calm - N/A   Clear